createdAt,value
2018-08-18T04:31:54.795Z,99.90
2018-08-18T04:34:22.886Z,99.90
2018-08-18T04:36:51.000Z,99.90
2018-08-18T04:39:19.113Z,99.90
2018-08-18T04:41:47.229Z,99.90
2018-08-18T04:44:15.353Z,99.90
2018-08-18T04:46:43.468Z,99.90
2018-08-18T04:49:11.552Z,99.90
2018-08-18T04:51:39.727Z,99.90
2018-08-18T04:54:08.167Z,99.90
2018-08-18T04:56:36.303Z,99.90
2018-08-18T04:59:04.413Z,99.90
2018-08-18T05:01:32.516Z,99.90
2018-08-18T05:04:05.882Z,99.90
2018-08-18T05:06:34.625Z,99.90
2018-08-18T05:09:04.637Z,99.90
2018-08-18T05:11:32.834Z,99.90
2018-08-18T05:14:00.886Z,99.90
2018-08-18T05:16:28.977Z,99.90
2018-08-18T05:18:57.172Z,99.90
2018-08-18T05:21:25.334Z,99.90
2018-08-18T05:23:53.875Z,99.90
2018-08-18T05:26:22.144Z,99.90
2018-08-18T05:28:50.325Z,99.90
2018-08-18T05:31:19.396Z,99.90
2018-08-18T05:33:47.802Z,99.90
2018-08-18T05:36:15.873Z,99.90
2018-08-18T05:38:43.991Z,99.90
2018-08-18T05:41:12.635Z,99.90
2018-08-18T05:43:40.746Z,99.90
2018-08-18T05:46:08.940Z,99.90
2018-08-18T05:48:37.044Z,99.90
2018-08-18T05:51:05.192Z,99.90
2018-08-18T05:53:35.092Z,99.90
2018-08-18T05:56:03.909Z,99.90
2018-08-18T05:58:54.983Z,99.90
2018-08-18T06:01:27.324Z,99.90
2018-08-18T06:04:02.143Z,99.90
2018-08-18T06:06:30.318Z,99.90
2018-08-18T06:08:58.412Z,99.90
2018-08-18T06:11:26.516Z,99.90
2018-08-18T06:13:54.636Z,99.90
2018-08-18T06:16:22.813Z,99.90
2018-08-18T06:18:50.896Z,99.90
2018-08-18T06:21:19.000Z,99.90
2018-08-18T06:23:47.112Z,99.90
2018-08-18T06:26:15.205Z,99.90
2018-08-18T06:28:43.312Z,99.90
2018-08-18T06:31:11.412Z,99.90
2018-08-18T06:33:39.541Z,99.90
2018-08-18T06:36:07.624Z,99.90
2018-08-18T06:38:35.775Z,99.90
2018-08-18T06:41:04.100Z,99.90
2018-08-18T06:43:33.407Z,99.90
2018-08-18T06:46:01.805Z,99.90
2018-08-18T06:48:32.533Z,99.90
2018-08-18T06:51:00.624Z,99.90
2018-08-18T06:53:29.728Z,99.90
2018-08-18T06:55:58.637Z,99.90
2018-08-18T06:58:26.742Z,99.90
2018-08-18T07:00:54.865Z,99.90
2018-08-18T07:03:34.361Z,99.90
2018-08-18T07:06:03.193Z,99.90
2018-08-18T07:08:38.334Z,99.90
2018-08-18T07:11:06.671Z,99.90
2018-08-18T07:13:34.888Z,99.90
2018-08-18T07:16:02.984Z,99.90
2018-08-18T07:18:31.134Z,99.90
2018-08-18T07:20:59.244Z,99.90
2018-08-18T07:23:27.382Z,99.90
2018-08-18T07:25:57.045Z,99.90
2018-08-18T07:28:25.179Z,99.90
2018-08-18T07:30:53.586Z,99.90
2018-08-18T07:33:21.921Z,99.90
2018-08-18T07:35:50.011Z,99.90
2018-08-18T07:38:18.180Z,99.90
2018-08-18T07:40:47.413Z,99.90
2018-08-18T07:43:19.903Z,99.90
2018-08-18T07:45:48.728Z,99.90
2018-08-18T07:48:16.842Z,99.90
2018-08-18T07:50:45.287Z,99.90
2018-08-18T07:53:13.530Z,99.90
2018-08-18T07:55:41.652Z,99.90
2018-08-18T07:58:11.904Z,99.90
2018-08-18T08:00:40.488Z,99.90
2018-08-18T08:03:09.767Z,99.90
2018-08-18T08:05:37.969Z,99.90
2018-08-18T08:08:06.164Z,99.90
2018-08-18T08:10:34.288Z,99.90
2018-08-18T08:13:02.474Z,99.90
2018-08-18T08:15:30.540Z,99.90
2018-08-18T08:17:58.705Z,99.90
2018-08-18T08:20:26.836Z,99.90
2018-08-18T08:22:55.550Z,99.90
2018-08-18T08:25:23.645Z,99.90
2018-08-18T08:27:52.762Z,96.20
2018-08-18T08:30:22.649Z,92.70
2018-08-18T08:32:50.804Z,90.70
2018-08-18T08:35:19.083Z,90.00
2018-08-18T08:37:47.680Z,90.90
2018-08-18T08:40:17.305Z,91.00
2018-08-18T08:42:45.463Z,92.40
2018-08-18T08:45:16.489Z,93.30
2018-08-18T08:47:45.477Z,93.20
2018-08-18T08:50:16.581Z,92.60
2018-08-18T08:52:49.000Z,91.20
2018-08-18T08:55:18.648Z,91.20
2018-08-18T08:57:46.896Z,87.50
2018-08-18T09:00:15.044Z,89.20
2018-08-18T09:02:43.292Z,91.00
2018-08-18T09:05:11.440Z,91.80
2018-08-18T09:07:39.928Z,92.70
2018-08-18T09:10:09.291Z,92.50
2018-08-18T09:12:37.920Z,93.10
2018-08-18T09:15:06.983Z,92.70
2018-08-18T09:17:35.149Z,92.20
2018-08-18T09:20:03.390Z,91.40
2018-08-18T09:22:31.734Z,91.70
2018-08-18T09:25:05.100Z,92.60
2018-08-18T09:27:34.658Z,92.20
2018-08-18T09:30:02.768Z,92.60
2018-08-18T09:32:30.885Z,93.00
2018-08-18T09:34:59.821Z,94.10
2018-08-18T09:37:28.021Z,93.80
2018-08-18T09:39:56.134Z,92.20
2018-08-18T09:42:24.265Z,91.70
2018-08-18T09:44:53.604Z,91.00
2018-08-18T09:47:21.711Z,90.70
2018-08-18T09:49:49.817Z,91.50
2018-08-18T09:52:19.320Z,91.80
2018-08-18T09:54:47.445Z,91.10
2018-08-18T09:57:15.667Z,87.40
2018-08-18T09:59:43.764Z,84.50
2018-08-18T10:02:13.094Z,80.60
2018-08-18T10:04:41.220Z,79.40
2018-08-18T10:07:09.320Z,79.70
2018-08-18T10:09:37.402Z,80.70
2018-08-18T10:12:05.762Z,80.40
2018-08-18T10:14:33.884Z,81.20
2018-08-18T10:17:01.982Z,78.70
2018-08-18T10:19:31.516Z,76.80
2018-08-18T10:22:00.300Z,78.40
2018-08-18T10:24:28.555Z,81.90
2018-08-18T10:27:04.061Z,82.60
2018-08-18T10:29:32.229Z,84.30
2018-08-18T10:32:00.560Z,85.50
2018-08-18T10:34:29.897Z,83.30
2018-08-18T10:37:00.560Z,84.00
2018-08-18T10:39:28.640Z,84.20
2018-08-18T10:42:12.744Z,82.20
2018-08-18T10:44:47.709Z,82.70
2018-08-18T10:47:17.061Z,81.90
2018-08-18T10:49:56.638Z,81.30
2018-08-18T10:52:37.092Z,80.30
2018-08-18T10:55:08.135Z,82.10
2018-08-18T10:57:48.708Z,81.50
2018-08-18T11:00:18.121Z,83.10
2018-08-18T11:02:47.340Z,82.60
2018-08-18T11:05:16.081Z,83.90
2018-08-18T11:07:52.976Z,83.10
2018-08-18T11:10:21.840Z,84.80
2018-08-18T11:12:49.933Z,85.60
2018-08-18T11:15:18.167Z,86.20
2018-08-18T11:17:46.236Z,88.60
2018-08-18T11:20:16.032Z,89.00
2018-08-18T11:22:49.790Z,87.50
2018-08-18T11:25:18.804Z,86.40
2018-08-18T11:27:47.061Z,85.70
2018-08-18T11:30:15.210Z,87.30
2018-08-18T11:32:43.329Z,87.00
2018-08-18T11:35:11.487Z,86.60
2018-08-18T11:37:52.691Z,85.60
2018-08-18T11:40:21.598Z,84.20
2018-08-18T11:42:50.352Z,85.80
2018-08-18T11:45:19.606Z,86.80
2018-08-18T11:47:58.952Z,85.00
2018-08-18T11:50:27.977Z,84.90
2018-08-18T11:52:56.221Z,85.90
2018-08-18T11:55:24.380Z,85.40
2018-08-18T11:57:53.621Z,84.80
2018-08-18T12:00:21.738Z,85.50
2018-08-18T12:02:50.893Z,87.00
2018-08-18T12:05:19.040Z,86.80
2018-08-18T12:07:48.952Z,83.20
2018-08-18T12:10:17.416Z,83.10
2018-08-18T12:12:45.545Z,86.10
2018-08-18T12:15:13.640Z,88.10
2018-08-18T12:17:54.305Z,86.60
2018-08-18T12:20:22.913Z,85.80
2018-08-18T12:22:52.568Z,84.40
2018-08-18T12:25:20.662Z,84.60
2018-08-18T12:27:48.779Z,86.20
2018-08-18T12:30:29.860Z,85.00
2018-08-18T12:32:58.260Z,84.00
2018-08-18T12:35:31.377Z,84.50
2018-08-18T12:37:59.712Z,86.60
2018-08-18T12:40:27.836Z,86.30
2018-08-18T12:42:55.923Z,83.30
2018-08-18T12:45:24.080Z,85.20
2018-08-18T12:47:55.553Z,82.30
2018-08-18T12:50:23.657Z,82.90
2018-08-18T12:52:51.738Z,83.00
2018-08-18T12:55:20.469Z,84.80
2018-08-18T12:57:49.709Z,86.10
2018-08-18T13:00:18.219Z,86.00
2018-08-18T13:02:48.965Z,84.80
2018-08-18T13:05:17.943Z,84.50
2018-08-18T13:07:46.240Z,85.10
2018-08-18T13:10:20.424Z,87.30
2018-08-18T13:12:49.065Z,87.70
2018-08-18T13:15:17.697Z,85.60
2018-08-18T13:17:45.789Z,86.70
2018-08-18T13:20:20.470Z,86.40
2018-08-18T13:22:48.919Z,84.60
2018-08-18T13:25:17.058Z,84.00
2018-08-18T13:27:49.204Z,85.40
2018-08-18T13:30:17.977Z,85.10
2018-08-18T13:32:46.088Z,86.10
2018-08-18T13:35:14.239Z,86.90
2018-08-18T13:37:42.362Z,88.50
2018-08-18T13:40:11.817Z,84.70
2018-08-18T13:42:40.560Z,84.90
2018-08-18T13:45:09.252Z,85.80
2018-08-18T13:47:44.145Z,86.80
2018-08-18T13:50:14.548Z,84.40
2018-08-18T13:52:48.840Z,84.20
2018-08-18T13:55:16.939Z,85.10
2018-08-18T13:57:45.064Z,84.70
2018-08-18T14:00:15.065Z,83.40
2018-08-18T14:02:43.881Z,83.80
2018-08-18T14:05:21.506Z,82.50
2018-08-18T14:07:57.418Z,84.10
2018-08-18T14:10:25.492Z,83.20
2018-08-18T14:12:54.500Z,85.20
2018-08-18T14:15:22.818Z,84.40
2018-08-18T14:18:00.755Z,85.10
2018-08-18T14:20:29.641Z,82.80
2018-08-18T14:23:03.247Z,81.60
2018-08-18T14:25:31.266Z,82.80
2018-08-18T14:28:03.421Z,83.30
2018-08-18T14:30:33.918Z,80.70
2018-08-18T14:33:02.132Z,82.10
2018-08-18T14:35:30.222Z,82.10
2018-08-18T14:37:58.332Z,82.70
2018-08-18T14:40:26.494Z,81.50
2018-08-18T14:42:54.613Z,81.20
2018-08-18T14:45:24.628Z,82.40
2018-08-18T14:47:52.721Z,82.90
2018-08-18T14:50:25.384Z,82.80
2018-08-18T14:52:53.479Z,82.00
2018-08-18T14:55:21.625Z,81.70
2018-08-18T14:57:54.924Z,82.60
2018-08-18T15:00:23.049Z,85.30
2018-08-18T15:02:51.168Z,83.70
2018-08-18T15:05:19.421Z,83.80
2018-08-18T15:07:52.727Z,83.60
2018-08-18T15:10:36.562Z,83.70
2018-08-18T15:13:05.306Z,84.40
2018-08-18T15:15:34.130Z,84.30
2018-08-18T15:18:04.356Z,82.70
2018-08-18T15:20:33.505Z,81.40
2018-08-18T15:23:02.380Z,84.10
2018-08-18T15:25:31.647Z,83.10
2018-08-18T15:28:03.224Z,83.40
2018-08-18T15:30:31.826Z,83.30
2018-08-18T15:33:00.172Z,84.40
2018-08-18T15:35:28.358Z,84.20
2018-08-18T15:37:57.337Z,83.60
2018-08-18T15:40:27.716Z,81.70
2018-08-18T15:42:56.644Z,81.90
2018-08-18T15:45:24.817Z,80.50
2018-08-18T15:47:52.960Z,81.30
2018-08-18T15:50:21.545Z,81.00
2018-08-18T15:52:49.789Z,82.80
2018-08-18T15:55:18.029Z,82.80
2018-08-18T15:57:46.180Z,81.90
2018-08-18T16:00:26.532Z,80.50
2018-08-18T16:02:55.328Z,81.40
2018-08-18T16:05:23.472Z,82.70
2018-08-18T16:07:52.169Z,83.20
2018-08-18T16:10:20.264Z,82.30
2018-08-18T16:12:48.849Z,81.20
2018-08-18T16:15:17.061Z,78.60
2018-08-18T16:17:45.193Z,80.30
2018-08-18T16:20:21.688Z,81.10
2018-08-18T16:22:51.200Z,81.70
2018-08-18T16:25:31.568Z,81.80
2018-08-18T16:27:59.657Z,82.20
2018-08-18T16:30:27.812Z,81.90
2018-08-18T16:33:09.606Z,82.60
2018-08-18T16:35:38.989Z,82.90
2018-08-18T16:38:07.459Z,83.80
2018-08-18T16:40:36.022Z,84.20
2018-08-18T16:43:05.483Z,83.50
2018-08-18T16:45:33.978Z,84.40
2018-08-18T16:48:02.902Z,84.10
2018-08-18T16:50:31.593Z,84.20
2018-08-18T16:53:01.256Z,85.00
2018-08-18T16:55:30.452Z,85.40
2018-08-18T16:57:58.676Z,83.80
2018-08-18T17:00:26.785Z,85.70
2018-08-18T17:02:54.905Z,85.60
2018-08-18T17:05:23.020Z,86.10
2018-08-18T17:07:51.137Z,86.00
2018-08-18T17:10:19.270Z,86.10
2018-08-18T17:12:47.368Z,88.20
2018-08-18T17:15:15.505Z,87.90
2018-08-18T17:17:43.589Z,87.00
2018-08-18T17:20:11.729Z,87.70
2018-08-18T17:22:39.840Z,87.20
2018-08-18T17:25:09.133Z,87.00
2018-08-18T17:27:37.281Z,87.80
2018-08-18T17:30:05.743Z,89.00
2018-08-18T17:32:33.810Z,88.20
2018-08-18T17:35:01.903Z,89.30
2018-08-18T17:37:30.061Z,88.90
2018-08-18T17:39:58.256Z,90.00
2018-08-18T17:42:26.357Z,90.00
2018-08-18T17:44:54.440Z,90.10
2018-08-18T17:47:22.570Z,89.80
2018-08-18T17:49:56.661Z,90.30
2018-08-18T17:52:25.094Z,90.70
2018-08-18T17:55:04.620Z,91.20
2018-08-18T17:57:32.909Z,90.80
2018-08-18T18:00:05.406Z,91.10
2018-08-18T18:02:35.909Z,91.20
2018-08-18T18:05:08.014Z,91.40
2018-08-18T18:07:36.119Z,92.50
2018-08-18T18:10:04.249Z,91.90
2018-08-18T18:12:33.508Z,91.80
2018-08-18T18:15:01.550Z,92.00
2018-08-18T18:17:29.664Z,92.00
2018-08-18T18:19:58.932Z,92.50
2018-08-18T18:22:39.864Z,92.70
2018-08-18T18:25:07.985Z,93.20
2018-08-18T18:27:36.095Z,93.40
2018-08-18T18:30:04.340Z,93.60
2018-08-18T18:32:32.495Z,93.80
2018-08-18T18:35:00.601Z,94.30
2018-08-18T18:37:28.661Z,94.40
2018-08-18T18:40:03.455Z,94.60
2018-08-18T18:42:31.573Z,94.40
2018-08-18T18:45:00.014Z,95.00
2018-08-18T18:47:28.768Z,95.10
2018-08-18T18:49:56.852Z,95.30
2018-08-18T18:52:25.005Z,95.60
2018-08-18T18:54:56.208Z,95.80
2018-08-18T18:57:24.806Z,95.80
2018-08-18T19:00:00.400Z,96.00
2018-08-18T19:02:35.938Z,96.70
2018-08-18T19:05:14.136Z,96.40
2018-08-18T19:07:42.274Z,96.90
2018-08-18T19:10:10.368Z,96.70
2018-08-18T19:12:38.509Z,96.90
2018-08-18T19:15:06.640Z,96.90
2018-08-18T19:17:34.789Z,97.30
2018-08-18T19:20:28.604Z,97.50
2018-08-18T19:23:03.085Z,97.40
2018-08-18T19:25:31.656Z,97.50
2018-08-18T19:28:00.098Z,97.60
2018-08-18T19:30:28.237Z,97.80
2018-08-18T19:32:56.346Z,98.40
2018-08-18T19:35:30.000Z,98.00
2018-08-18T19:37:58.127Z,98.10
2018-08-18T19:40:26.242Z,98.40
2018-08-18T19:42:54.412Z,99.10
2018-08-18T19:45:22.587Z,99.00
2018-08-18T19:47:50.862Z,99.00
2018-08-18T19:50:19.044Z,99.20
2018-08-18T19:52:47.181Z,99.30
2018-08-18T19:55:15.325Z,99.40
2018-08-18T19:57:43.453Z,99.60
2018-08-18T20:00:17.891Z,99.70
2018-08-18T20:02:52.450Z,99.90
2018-08-18T20:05:21.542Z,99.50
2018-08-18T20:07:49.841Z,99.40
2018-08-18T20:10:18.003Z,99.80
2018-08-18T20:12:47.156Z,99.90
2018-08-18T20:15:15.893Z,99.90
2018-08-18T20:17:44.320Z,99.90
2018-08-18T20:20:13.355Z,99.90
2018-08-18T20:22:41.889Z,99.90
2018-08-18T20:25:09.994Z,99.90
2018-08-18T20:27:38.112Z,99.90
2018-08-18T20:30:06.208Z,99.90
2018-08-18T20:32:34.317Z,99.90
2018-08-18T20:35:02.421Z,99.90
2018-08-18T20:37:30.532Z,99.90
2018-08-18T20:39:58.660Z,99.90
2018-08-18T20:42:31.032Z,99.90
2018-08-18T20:44:59.488Z,99.90
2018-08-18T20:47:29.952Z,99.90
2018-08-18T20:49:58.269Z,99.90
2018-08-18T20:52:26.917Z,99.90
2018-08-18T20:54:56.109Z,99.90
2018-08-18T20:57:24.224Z,99.90
2018-08-18T20:59:52.621Z,99.90
2018-08-18T21:02:21.039Z,99.90
2018-08-18T21:04:53.456Z,99.90
2018-08-18T21:07:22.310Z,99.90
2018-08-18T21:09:50.417Z,99.90
2018-08-18T21:12:18.592Z,99.90
2018-08-18T21:14:46.766Z,99.90
2018-08-18T21:17:14.851Z,99.90
2018-08-18T21:19:42.970Z,99.90
2018-08-18T21:22:13.262Z,99.90
2018-08-18T21:24:41.472Z,99.90
2018-08-18T21:27:09.602Z,99.90
2018-08-18T21:29:37.750Z,99.90
2018-08-18T21:32:05.841Z,99.90
2018-08-18T21:34:43.700Z,99.90
2018-08-18T21:37:11.808Z,99.90
2018-08-18T21:39:40.009Z,99.90
2018-08-18T21:42:08.117Z,99.90
2018-08-18T21:44:36.233Z,99.90
2018-08-18T21:47:04.328Z,99.90
2018-08-18T21:49:32.429Z,99.90
2018-08-18T21:52:00.535Z,99.90
2018-08-18T21:54:28.720Z,99.90
2018-08-18T21:56:56.894Z,99.90
2018-08-18T21:59:25.071Z,99.70
2018-08-18T22:01:58.160Z,99.90
2018-08-18T22:04:26.348Z,99.80
2018-08-18T22:06:54.416Z,99.80
2018-08-18T22:09:27.416Z,99.90
2018-08-18T22:11:55.569Z,99.50
2018-08-18T22:14:23.741Z,99.10
2018-08-18T22:16:59.917Z,98.60
2018-08-18T22:19:28.929Z,98.40
2018-08-18T22:21:57.043Z,98.30
2018-08-18T22:24:25.178Z,98.10
2018-08-18T22:26:53.243Z,98.00
2018-08-18T22:29:23.998Z,98.20
2018-08-18T22:31:52.433Z,98.60
2018-08-18T22:34:20.524Z,98.50
2018-08-18T22:36:48.779Z,98.20
2018-08-18T22:39:18.229Z,98.30
2018-08-18T22:41:46.325Z,98.30
2018-08-18T22:44:14.436Z,98.70
